createdAt,value
2022-09-17T00:02:16.661Z,13.74
2022-09-17T00:04:46.081Z,13.76
2022-09-17T00:07:15.701Z,13.79
2022-09-17T00:09:47.652Z,13.82
2022-09-17T00:12:17.042Z,13.88
2022-09-17T00:14:46.685Z,13.84
2022-09-17T00:17:16.092Z,13.76
2022-09-17T00:19:45.486Z,13.76
2022-09-17T00:22:14.876Z,13.68
2022-09-17T00:24:44.486Z,13.72
2022-09-17T00:27:16.474Z,13.71
2022-09-17T00:29:45.868Z,13.71
2022-09-17T00:32:15.241Z,13.73
2022-09-17T00:34:46.635Z,13.76
2022-09-17T00:37:16.054Z,13.82
2022-09-17T00:39:45.481Z,13.75
2022-09-17T00:42:17.529Z,13.76
2022-09-17T00:44:51.157Z,13.67
2022-09-17T00:47:26.440Z,13.50
2022-09-17T00:49:58.361Z,13.53
2022-09-17T00:52:30.052Z,13.53
2022-09-17T00:55:03.084Z,13.48
2022-09-17T00:57:35.107Z,13.41
2022-09-17T01:00:05.077Z,13.41
2022-09-17T01:02:34.468Z,13.43
2022-09-17T01:05:03.854Z,13.45
2022-09-17T01:07:58.718Z,13.44
2022-09-17T01:10:38.849Z,13.38
2022-09-17T01:13:17.315Z,13.30
2022-09-17T01:15:49.796Z,13.39
2022-09-17T01:18:25.835Z,13.29
2022-09-17T01:21:30.741Z,13.30
2022-09-17T01:24:32.777Z,13.22
2022-09-17T01:27:45.634Z,13.18
2022-09-17T01:30:40.078Z,13.15
2022-09-17T01:33:11.772Z,13.13
2022-09-17T01:35:46.465Z,13.09
2022-09-17T01:38:27.424Z,12.97
2022-09-17T01:41:00.400Z,13.06
2022-09-17T01:43:33.101Z,13.01
2022-09-17T01:46:07.006Z,12.99
2022-09-17T01:48:39.033Z,12.97
2022-09-17T01:51:09.441Z,12.98
2022-09-17T01:53:41.579Z,12.98
2022-09-17T01:56:11.002Z,13.08
2022-09-17T01:58:42.226Z,13.10
2022-09-17T02:01:14.247Z,13.12
2022-09-17T02:03:44.824Z,13.05
2022-09-17T02:06:15.630Z,13.13
2022-09-17T02:08:48.286Z,13.06
2022-09-17T02:11:17.862Z,13.12
2022-09-17T02:13:50.079Z,13.10
2022-09-17T02:16:24.546Z,13.11
2022-09-17T02:18:58.242Z,13.18
2022-09-17T02:21:32.178Z,13.28
2022-09-17T02:24:10.078Z,13.44
2022-09-17T02:26:40.281Z,13.41
2022-09-17T02:29:11.677Z,13.46
2022-09-17T02:31:43.743Z,13.49
2022-09-17T02:34:13.158Z,13.59
2022-09-17T02:36:42.718Z,13.54
2022-09-17T02:39:12.196Z,13.47
2022-09-17T02:41:47.246Z,13.36
2022-09-17T02:44:21.877Z,13.33
2022-09-17T02:47:11.691Z,13.35
2022-09-17T02:50:01.661Z,13.38
2022-09-17T02:52:35.198Z,13.33
2022-09-17T02:55:07.498Z,13.37
2022-09-17T02:57:39.706Z,13.37
2022-09-17T03:00:12.189Z,13.35
2022-09-17T03:02:45.964Z,13.32
2022-09-17T03:05:15.364Z,13.37
2022-09-17T03:07:44.773Z,13.45
2022-09-17T03:10:14.227Z,13.37
2022-09-17T03:12:43.665Z,13.35
2022-09-17T03:15:13.511Z,13.48
2022-09-17T03:17:47.275Z,13.58
2022-09-17T03:20:19.907Z,13.57
2022-09-17T03:22:49.361Z,13.57
2022-09-17T03:25:18.952Z,13.61
2022-09-17T03:27:48.377Z,13.59
2022-09-17T03:30:17.873Z,13.63
2022-09-17T03:32:49.927Z,13.58
2022-09-17T03:35:19.361Z,13.56
2022-09-17T03:37:49.146Z,13.59
2022-09-17T03:40:19.935Z,13.55
2022-09-17T03:42:49.504Z,13.57
2022-09-17T03:45:18.961Z,13.65
2022-09-17T03:47:50.952Z,13.57
2022-09-17T03:50:20.537Z,13.66
2022-09-17T03:52:49.968Z,13.66
2022-09-17T03:55:19.957Z,13.64
2022-09-17T03:57:49.347Z,13.67
2022-09-17T04:00:19.469Z,13.70
2022-09-17T04:02:51.537Z,13.70
2022-09-17T04:05:21.026Z,13.76
2022-09-17T04:07:50.466Z,13.83
2022-09-17T04:10:20.122Z,13.84
2022-09-17T04:12:49.518Z,13.92
2022-09-17T04:15:18.969Z,13.87
2022-09-17T04:17:50.937Z,13.88
2022-09-17T04:20:20.414Z,13.76
2022-09-17T04:22:49.806Z,13.74
2022-09-17T04:25:19.613Z,13.76
2022-09-17T04:27:49.082Z,13.58
2022-09-17T04:30:18.670Z,13.55
2022-09-17T04:32:50.828Z,13.59
2022-09-17T04:35:20.336Z,13.60
2022-09-17T04:37:55.177Z,13.62
2022-09-17T04:40:24.659Z,13.62
2022-09-17T04:42:55.270Z,13.69
2022-09-17T04:45:24.749Z,13.67
2022-09-17T04:47:56.720Z,13.67
2022-09-17T04:50:26.214Z,13.66
2022-09-17T04:52:55.609Z,13.68
2022-09-17T04:55:25.388Z,13.75
2022-09-17T04:57:55.437Z,13.81
2022-09-17T05:00:25.090Z,13.74
2022-09-17T05:02:57.676Z,13.71
2022-09-17T05:05:27.238Z,13.62
2022-09-17T05:07:56.648Z,13.67
2022-09-17T05:10:26.451Z,13.71
2022-09-17T05:12:56.941Z,13.77
2022-09-17T05:15:27.839Z,13.77
2022-09-17T05:17:59.816Z,13.87
2022-09-17T05:20:29.340Z,13.82
2022-09-17T05:22:58.722Z,13.61
2022-09-17T05:25:28.124Z,13.54
2022-09-17T05:27:57.517Z,13.58
2022-09-17T05:30:26.949Z,13.70
2022-09-17T05:33:04.324Z,13.73
2022-09-17T05:35:35.882Z,13.80
2022-09-17T05:38:06.198Z,13.77
2022-09-17T05:40:37.428Z,13.76
2022-09-17T05:43:07.684Z,13.65
2022-09-17T05:45:37.597Z,13.50
2022-09-17T05:48:11.205Z,13.49
2022-09-17T05:50:41.361Z,13.56
2022-09-17T05:53:11.525Z,13.54
2022-09-17T05:55:41.111Z,13.42
2022-09-17T05:58:14.265Z,13.42
2022-09-17T06:00:43.916Z,13.35
2022-09-17T06:03:16.276Z,13.46
2022-09-17T06:05:45.809Z,13.45
2022-09-17T06:08:15.205Z,13.45
2022-09-17T06:10:44.608Z,13.53
2022-09-17T06:13:14.012Z,13.61
2022-09-17T06:15:43.416Z,13.62
2022-09-17T06:18:12.831Z,13.77
2022-09-17T06:20:44.840Z,13.70
2022-09-17T06:23:16.098Z,13.80
2022-09-17T06:25:45.557Z,14.03
2022-09-17T06:28:14.962Z,14.20
2022-09-17T06:30:44.364Z,14.30
2022-09-17T06:33:13.770Z,14.40
2022-09-17T06:35:45.814Z,14.63
2022-09-17T06:38:15.251Z,14.83
2022-09-17T06:40:44.640Z,14.83
2022-09-17T06:43:14.024Z,14.98
2022-09-17T06:45:43.432Z,15.11
2022-09-17T06:48:12.816Z,15.26
2022-09-17T06:50:44.822Z,15.22
2022-09-17T06:53:14.204Z,15.16
2022-09-17T06:55:43.690Z,15.03
2022-09-17T06:58:13.078Z,15.06
2022-09-17T07:00:42.522Z,15.35
2022-09-17T07:03:12.207Z,15.69
2022-09-17T07:05:41.900Z,15.92
2022-09-17T07:08:13.901Z,15.92
2022-09-17T07:10:43.309Z,15.74
2022-09-17T07:13:12.696Z,15.72
2022-09-17T07:15:42.195Z,15.81
2022-09-17T07:18:11.816Z,15.76
2022-09-17T07:20:41.581Z,15.55
2022-09-17T07:23:10.969Z,15.38
2022-09-17T07:25:42.986Z,15.36
2022-09-17T07:28:12.388Z,15.47
2022-09-17T07:30:41.806Z,15.56
2022-09-17T07:33:11.321Z,15.75
2022-09-17T07:35:40.717Z,16.10
2022-09-17T07:38:10.100Z,16.63
2022-09-17T07:40:39.534Z,16.87
2022-09-17T07:43:11.538Z,16.38
2022-09-17T07:45:40.954Z,16.24
2022-09-17T07:48:10.355Z,15.98
2022-09-17T07:50:40.855Z,15.76
2022-09-17T07:53:10.248Z,16.00
2022-09-17T07:55:39.660Z,15.95
2022-09-17T07:58:11.721Z,16.30
2022-09-17T08:00:41.539Z,16.81
2022-09-17T08:03:11.012Z,17.27
2022-09-17T08:05:40.480Z,17.73
2022-09-17T08:08:09.906Z,18.09
2022-09-17T08:10:39.305Z,18.47
2022-09-17T08:13:11.267Z,18.66
2022-09-17T08:15:40.684Z,18.75
2022-09-17T08:18:10.079Z,18.92
2022-09-17T08:20:39.473Z,19.39
2022-09-17T08:23:09.256Z,19.34
2022-09-17T08:25:38.665Z,18.86
2022-09-17T08:28:10.642Z,18.49
2022-09-17T08:30:40.057Z,18.20
2022-09-17T08:33:09.432Z,17.93
2022-09-17T08:35:38.839Z,18.29
2022-09-17T08:38:08.425Z,18.81
2022-09-17T08:40:39.250Z,19.20
2022-09-17T08:43:11.514Z,19.30
2022-09-17T08:45:40.968Z,18.95
2022-09-17T08:48:11.768Z,19.02
2022-09-17T08:50:42.121Z,18.82
2022-09-17T08:53:38.562Z,18.65
2022-09-17T08:56:09.839Z,19.04
2022-09-17T08:58:57.117Z,19.35
2022-09-17T09:01:34.449Z,19.51
2022-09-17T09:04:19.745Z,19.63
2022-09-17T09:06:50.690Z,19.40
2022-09-17T09:09:21.147Z,19.36
2022-09-17T09:11:51.237Z,19.45
2022-09-17T09:14:26.377Z,19.16
2022-09-17T09:16:55.986Z,18.95
2022-09-17T09:19:27.023Z,18.54
2022-09-17T09:22:00.927Z,18.15
2022-09-17T09:24:34.087Z,17.84
2022-09-17T09:27:06.456Z,17.81
2022-09-17T09:29:41.831Z,17.83
2022-09-17T09:32:17.999Z,18.14
2022-09-17T09:34:47.440Z,18.26
2022-09-17T09:37:19.001Z,18.15
2022-09-17T09:39:48.398Z,17.99
2022-09-17T09:42:21.687Z,18.01
2022-09-17T09:44:53.648Z,17.88
2022-09-17T09:47:32.588Z,17.77
2022-09-17T09:50:08.389Z,17.78
2022-09-17T09:52:45.236Z,17.82
2022-09-17T09:55:26.688Z,18.00
2022-09-17T09:57:58.281Z,18.13
2022-09-17T10:00:31.911Z,18.21
2022-09-17T10:03:04.521Z,18.16
2022-09-17T10:05:33.942Z,18.16
2022-09-17T10:08:03.567Z,18.05
2022-09-17T10:10:32.953Z,18.17
2022-09-17T10:13:10.105Z,18.06
2022-09-17T10:15:42.652Z,18.29
2022-09-17T10:18:18.705Z,18.26
2022-09-17T10:20:58.345Z,18.25
2022-09-17T10:23:29.214Z,18.00
2022-09-17T10:25:58.799Z,18.09
2022-09-17T10:28:48.359Z,18.52
2022-09-17T10:31:20.428Z,19.06
2022-09-17T10:33:58.881Z,19.46
2022-09-17T10:36:40.266Z,19.62
2022-09-17T10:39:34.608Z,19.79
2022-09-17T10:42:04.856Z,20.11
2022-09-17T10:44:35.999Z,20.09
2022-09-17T10:47:13.577Z,20.38
2022-09-17T10:49:44.090Z,20.72
2022-09-17T10:52:15.930Z,20.69
2022-09-17T10:55:12.442Z,21.08
2022-09-17T10:57:55.179Z,21.11
2022-09-17T11:00:25.438Z,20.59
2022-09-17T11:03:20.950Z,20.06
2022-09-17T11:06:21.537Z,19.79
2022-09-17T11:08:57.457Z,20.02
2022-09-17T11:11:34.557Z,20.15
2022-09-17T11:14:07.823Z,20.20
2022-09-17T11:16:40.096Z,19.86
2022-09-17T11:19:17.437Z,19.98
2022-09-17T11:21:49.126Z,19.82
2022-09-17T11:24:52.817Z,20.01
2022-09-17T11:27:32.530Z,20.23
2022-09-17T11:30:07.168Z,20.43
2022-09-17T11:32:53.645Z,20.53
2022-09-17T11:35:26.852Z,20.49
2022-09-17T11:38:00.127Z,20.55
2022-09-17T11:40:35.444Z,20.51
2022-09-17T11:43:06.361Z,20.61
2022-09-17T11:45:37.773Z,20.58
2022-09-17T11:48:08.568Z,20.74
2022-09-17T11:50:43.842Z,20.94
2022-09-17T11:53:17.977Z,21.06
2022-09-17T11:55:49.198Z,21.20
2022-09-17T11:58:20.047Z,21.23
2022-09-17T12:00:52.714Z,20.98
2022-09-17T12:03:26.352Z,20.82
2022-09-17T12:05:59.808Z,20.38
2022-09-17T12:08:32.106Z,20.15
2022-09-17T12:11:04.030Z,20.03
2022-09-17T12:13:35.606Z,20.25
2022-09-17T12:16:18.103Z,20.59
2022-09-17T12:18:51.157Z,21.00
2022-09-17T12:21:25.565Z,21.29
2022-09-17T12:23:57.128Z,21.44
2022-09-17T12:26:42.882Z,21.56
2022-09-17T12:29:16.988Z,21.58
2022-09-17T12:31:48.467Z,21.51
2022-09-17T12:34:29.665Z,21.49
2022-09-17T12:37:03.679Z,21.23
2022-09-17T12:39:39.890Z,20.96
2022-09-17T12:42:13.710Z,20.77
2022-09-17T12:45:05.208Z,20.58
2022-09-17T12:47:52.711Z,20.46
2022-09-17T12:50:23.321Z,20.34
2022-09-17T12:53:05.260Z,20.15
2022-09-17T12:55:42.906Z,20.14
2022-09-17T12:58:18.727Z,20.31
2022-09-17T13:00:50.910Z,20.33
2022-09-17T13:03:23.188Z,20.61
2022-09-17T13:06:23.861Z,20.69
2022-09-17T13:09:18.104Z,20.78
2022-09-17T13:12:16.477Z,20.79
2022-09-17T13:14:54.806Z,20.83
2022-09-17T13:17:27.419Z,20.79
2022-09-17T13:20:00.434Z,20.67
2022-09-17T13:22:33.514Z,20.52
2022-09-17T13:25:10.193Z,20.30
2022-09-17T13:27:39.691Z,20.10
2022-09-17T13:30:11.059Z,19.76
2022-09-17T13:32:56.183Z,19.06
2022-09-17T13:35:49.680Z,18.18
2022-09-17T13:38:23.084Z,17.62
2022-09-17T13:40:57.556Z,17.52
2022-09-17T13:43:28.065Z,17.42
2022-09-17T13:46:17.465Z,17.53
2022-09-17T13:48:51.937Z,17.71
2022-09-17T13:51:49.395Z,17.83
2022-09-17T13:54:18.910Z,18.04
2022-09-17T13:56:52.433Z,18.17
2022-09-17T13:59:23.683Z,18.42
2022-09-17T14:02:04.275Z,18.58
2022-09-17T14:04:38.253Z,18.82
2022-09-17T14:07:35.509Z,18.85
2022-09-17T14:10:05.912Z,18.87
2022-09-17T14:12:57.607Z,18.89
2022-09-17T14:15:57.623Z,18.93
2022-09-17T14:18:39.906Z,19.15
2022-09-17T14:21:24.438Z,19.23
2022-09-17T14:23:57.604Z,19.13
2022-09-17T14:26:51.203Z,19.05
2022-09-17T14:29:33.457Z,18.88
2022-09-17T14:32:02.882Z,18.57
2022-09-17T14:34:32.309Z,18.21
2022-09-17T14:37:01.700Z,17.70
2022-09-17T14:39:33.077Z,16.90
2022-09-17T14:42:02.478Z,16.50
2022-09-17T14:44:34.675Z,16.29
2022-09-17T14:47:05.082Z,16.39
2022-09-17T14:49:36.041Z,16.30
2022-09-17T14:52:06.765Z,16.14
2022-09-17T14:54:36.738Z,16.03
2022-09-17T14:57:06.879Z,16.06
2022-09-17T14:59:52.346Z,15.89
2022-09-17T15:02:30.317Z,15.92
2022-09-17T15:05:00.266Z,15.88
2022-09-17T15:07:30.033Z,15.99
2022-09-17T15:10:09.514Z,16.10
2022-09-17T15:12:38.955Z,16.17
2022-09-17T15:15:17.080Z,16.17
2022-09-17T15:17:49.814Z,16.15
2022-09-17T15:20:21.884Z,16.13
2022-09-17T15:22:55.261Z,16.12
2022-09-17T15:25:26.528Z,15.97
2022-09-17T15:27:56.448Z,15.83
2022-09-17T15:30:28.514Z,15.83
2022-09-17T15:32:58.503Z,15.89
2022-09-17T15:35:30.235Z,15.94
2022-09-17T15:38:21.607Z,15.97
2022-09-17T15:40:49.663Z,15.88
2022-09-17T15:43:20.387Z,15.90
2022-09-17T15:45:52.416Z,15.95
2022-09-17T15:48:35.944Z,15.91
2022-09-17T15:51:06.999Z,15.78
2022-09-17T15:53:36.597Z,15.67
2022-09-17T15:56:08.107Z,15.50
2022-09-17T15:58:40.015Z,15.50
2022-09-17T16:01:42.226Z,15.56
2022-09-17T16:04:20.457Z,15.54
2022-09-17T16:06:58.730Z,15.56
2022-09-17T16:09:46.878Z,15.41
2022-09-17T16:12:18.496Z,15.42
2022-09-17T16:14:49.245Z,15.40
2022-09-17T16:17:33.098Z,15.39
2022-09-17T16:20:08.882Z,15.49
2022-09-17T16:22:38.293Z,15.44
2022-09-17T16:25:08.775Z,15.39
2022-09-17T16:27:47.072Z,15.46
2022-09-17T16:30:18.141Z,15.50
2022-09-17T16:32:47.621Z,15.42
2022-09-17T16:35:20.513Z,15.34
2022-09-17T16:37:51.394Z,15.27
2022-09-17T16:40:21.273Z,15.28
2022-09-17T16:42:50.842Z,15.26
2022-09-17T16:45:20.326Z,15.20
2022-09-17T16:47:49.893Z,15.13
2022-09-17T16:50:22.045Z,15.13
2022-09-17T16:52:51.477Z,15.18
2022-09-17T16:55:21.670Z,15.15
2022-09-17T16:57:51.144Z,15.10
2022-09-17T17:00:22.643Z,15.16
2022-09-17T17:02:55.664Z,15.14
2022-09-17T17:05:28.164Z,15.11
2022-09-17T17:07:57.705Z,15.11
2022-09-17T17:10:27.873Z,15.13
2022-09-17T17:12:57.297Z,15.12
2022-09-17T17:15:27.155Z,15.21
2022-09-17T17:17:57.533Z,15.35
2022-09-17T17:20:29.527Z,15.41
2022-09-17T17:22:58.938Z,15.36
2022-09-17T17:25:28.650Z,15.21
2022-09-17T17:27:58.053Z,14.97
2022-09-17T17:30:31.734Z,14.85
2022-09-17T17:33:04.095Z,14.64
2022-09-17T17:35:36.088Z,14.44
2022-09-17T17:38:05.515Z,14.27
2022-09-17T17:40:34.989Z,14.06
2022-09-17T17:43:04.455Z,13.81
2022-09-17T17:45:33.854Z,13.72
2022-09-17T17:48:03.571Z,13.69
2022-09-17T17:50:32.962Z,13.69
2022-09-17T17:53:04.936Z,13.68
2022-09-17T17:55:34.432Z,13.67
2022-09-17T17:58:03.826Z,13.54
2022-09-17T18:00:33.202Z,13.56
2022-09-17T18:03:02.674Z,13.53
2022-09-17T18:05:32.134Z,13.50
2022-09-17T18:08:01.550Z,13.37
2022-09-17T18:10:33.528Z,13.38
2022-09-17T18:13:02.923Z,13.36
2022-09-17T18:15:32.305Z,13.26
2022-09-17T18:18:01.698Z,13.25
2022-09-17T18:20:31.076Z,13.21
2022-09-17T18:23:00.469Z,13.09
2022-09-17T18:25:29.921Z,13.11
2022-09-17T18:28:01.891Z,13.11
2022-09-17T18:30:32.277Z,13.05
2022-09-17T18:33:01.683Z,13.04
2022-09-17T18:35:31.057Z,13.11
2022-09-17T18:38:00.433Z,13.14
2022-09-17T18:40:29.864Z,13.17
2022-09-17T18:43:01.869Z,13.13
2022-09-17T18:45:32.074Z,13.11
2022-09-17T18:48:01.448Z,13.07
2022-09-17T18:50:30.847Z,13.11
2022-09-17T18:53:00.229Z,13.12
2022-09-17T18:55:29.717Z,13.14
2022-09-17T18:58:01.682Z,13.14
2022-09-17T19:00:31.114Z,13.14
2022-09-17T19:03:00.573Z,13.18
2022-09-17T19:05:29.988Z,13.21
2022-09-17T19:07:59.370Z,13.17
2022-09-17T19:10:29.066Z,13.20
2022-09-17T19:12:58.439Z,13.22
2022-09-17T19:15:30.455Z,13.24
2022-09-17T19:17:59.836Z,13.24
2022-09-17T19:20:29.801Z,13.24
2022-09-17T19:22:59.230Z,13.32
2022-09-17T19:25:29.152Z,13.35
2022-09-17T19:27:58.618Z,13.34
2022-09-17T19:30:30.967Z,13.34
2022-09-17T19:33:00.592Z,13.35
2022-09-17T19:35:30.369Z,13.28
2022-09-17T19:38:03.581Z,13.14
2022-09-17T19:40:33.041Z,13.11
2022-09-17T19:43:02.452Z,13.13
2022-09-17T19:45:34.420Z,13.17
2022-09-17T19:48:04.128Z,13.19
2022-09-17T19:50:36.184Z,13.23
2022-09-17T19:53:05.577Z,13.23
2022-09-17T19:55:34.973Z,13.19
2022-09-17T19:58:04.640Z,13.18
2022-09-17T20:00:37.988Z,13.22
2022-09-17T20:03:07.462Z,13.26
2022-09-17T20:05:36.904Z,13.31
2022-09-17T20:08:06.416Z,13.36
2022-09-17T20:10:37.341Z,13.37
2022-09-17T20:13:07.150Z,13.35
2022-09-17T20:15:39.594Z,13.37
2022-09-17T20:18:09.077Z,13.40
2022-09-17T20:20:40.893Z,13.41
2022-09-17T20:23:10.400Z,13.40
2022-09-17T20:25:39.805Z,13.43
2022-09-17T20:28:09.632Z,13.41
2022-09-17T20:30:41.600Z,13.43
2022-09-17T20:33:10.979Z,13.40
2022-09-17T20:35:40.380Z,13.40
2022-09-17T20:41:03.521Z,13.49
2022-09-17T20:43:35.572Z,13.44
2022-09-17T20:46:08.467Z,13.39
2022-09-17T20:48:38.051Z,13.41
2022-09-17T20:51:08.442Z,13.44
2022-09-17T20:53:38.523Z,13.40
2022-09-17T20:56:08.840Z,13.27
2022-09-17T20:58:45.466Z,13.05
2022-09-17T21:01:20.537Z,13.04
2022-09-17T21:03:50.961Z,12.98
2022-09-17T21:06:20.633Z,13.05
2022-09-17T21:08:50.169Z,13.03
2022-09-17T21:11:19.898Z,13.09
2022-09-17T21:13:49.342Z,13.12
2022-09-17T21:16:21.453Z,13.11
2022-09-17T21:18:51.000Z,12.94
2022-09-17T21:21:20.713Z,12.98
2022-09-17T21:23:50.778Z,12.94
2022-09-17T21:26:20.857Z,12.94
2022-09-17T21:28:51.257Z,12.91
2022-09-17T21:31:25.443Z,12.91
2022-09-17T21:33:58.484Z,12.92
2022-09-17T21:36:28.856Z,12.89
2022-09-17T21:38:59.098Z,12.90
2022-09-17T21:41:28.674Z,12.93
2022-09-17T21:43:58.085Z,12.93
2022-09-17T21:46:30.841Z,12.97
2022-09-17T21:49:02.240Z,12.99
2022-09-17T21:51:33.910Z,13.06
2022-09-17T21:54:04.098Z,13.11
2022-09-17T21:56:33.808Z,13.04
2022-09-17T21:59:04.253Z,13.13
2022-09-17T22:01:39.663Z,13.26
2022-09-17T22:04:09.928Z,13.35
2022-09-17T22:06:39.663Z,13.42
2022-09-17T22:09:10.159Z,13.42
2022-09-17T22:11:39.913Z,13.31
2022-09-17T22:14:12.472Z,13.30
2022-09-17T22:16:45.124Z,13.23
2022-09-17T22:19:16.954Z,13.35
2022-09-17T22:21:47.500Z,13.33
2022-09-17T22:24:17.619Z,13.44
2022-09-17T22:26:49.844Z,13.52
2022-09-17T22:29:22.397Z,13.64
2022-09-17T22:31:54.369Z,13.60
2022-09-17T22:34:25.896Z,13.61
2022-09-17T22:36:55.349Z,13.61
2022-09-17T22:39:24.894Z,13.65
2022-09-17T22:41:54.758Z,13.69
2022-09-17T22:44:24.174Z,13.76
2022-09-17T22:46:56.767Z,13.71
2022-09-17T22:49:26.210Z,13.73
2022-09-17T22:51:55.617Z,13.70
2022-09-17T22:54:25.037Z,13.75
2022-09-17T22:56:54.421Z,13.69
2022-09-17T22:59:23.826Z,13.74
2022-09-17T23:01:55.846Z,13.76
2022-09-17T23:04:25.265Z,13.75
2022-09-17T23:06:54.670Z,13.69
2022-09-17T23:09:24.097Z,13.72
2022-09-17T23:11:53.494Z,13.70
2022-09-17T23:14:22.922Z,13.70
2022-09-17T23:16:52.308Z,13.69
2022-09-17T23:19:24.413Z,13.65
2022-09-17T23:21:53.845Z,13.67
2022-09-17T23:24:24.027Z,13.63
2022-09-17T23:26:53.481Z,13.70
2022-09-17T23:29:22.984Z,13.73
2022-09-17T23:31:52.378Z,13.66
2022-09-17T23:34:24.659Z,13.64
2022-09-17T23:36:54.052Z,13.60
2022-09-17T23:39:23.487Z,13.57
2022-09-17T23:41:53.004Z,13.50
2022-09-17T23:44:22.439Z,13.50
2022-09-17T23:46:51.889Z,13.58
2022-09-17T23:49:23.938Z,13.48
2022-09-17T23:51:53.349Z,13.46
2022-09-17T23:54:23.155Z,13.52
2022-09-17T23:56:52.570Z,13.49
2022-09-17T23:59:21.991Z,13.55
